Time;durP1;ratioP1;P1;durP2;ratioP2;P2;SDS_P1;SDS_P2;PMS_P1;PMS_P2;Temp;Humidity;BMP_temperature;BMP_pressure;BME280_temperature;BME280_humidity;BME280_pressure;Samples;Min_cycle;Max_cycle;Signal;HPM_P1;HPM_P2
2023/01/23 00:00:43;;;;;;;;;;;17.00;48.40;;;;;;10129361;28;1919;-71
2023/01/23 00:05:38;;;;;;;;;;;17.00;48.40;;;;;;10129392;28;810;-71
2023/01/23 00:10:34;;;;;;;;;;;16.90;48.40;;;;;;10128361;28;1040;-71
2023/01/23 00:15:31;;;;;;;;;;;17.00;48.40;;;;;;10128915;28;858;-71
2023/01/23 00:20:27;;;;;;;;;;;16.90;48.40;;;;;;10127394;28;1902;-71
2023/01/23 00:25:22;;;;;;;;;;;17.00;48.40;;;;;;10128510;28;980;-71
2023/01/23 00:30:17;;;;;;;;;;;17.00;48.40;;;;;;10127788;28;765;-71
2023/01/23 00:35:13;;;;;;;;;;;16.90;48.30;;;;;;10128181;28;809;-71
2023/01/23 00:40:08;;;;;;;;;;;17.00;48.40;;;;;;10126752;28;1895;-71
2023/01/23 00:45:04;;;;;;;;;;;16.90;48.30;;;;;;10126916;28;809;-71
2023/01/23 00:49:59;;;;;;;;;;;16.90;48.40;;;;;;10126448;28;901;-71
2023/01/23 00:54:54;;;;;;;;;;;16.90;48.40;;;;;;10126850;28;866;-71
2023/01/23 00:59:50;;;;;;;;;;;17.00;48.30;;;;;;10127356;28;1971;-71
2023/01/23 01:04:45;;;;;;;;;;;16.90;48.30;;;;;;10126460;28;830;-71
2023/01/23 01:09:41;;;;;;;;;;;16.90;48.40;;;;;;10126289;28;924;-71
2023/01/23 01:14:36;;;;;;;;;;;16.90;48.40;;;;;;10125486;28;879;-71
2023/01/23 01:19:32;;;;;;;;;;;16.90;48.40;;;;;;10125856;28;1907;-71
2023/01/23 01:24:27;;;;;;;;;;;16.90;48.30;;;;;;10126127;28;796;-71
2023/01/23 01:29:23;;;;;;;;;;;16.90;48.30;;;;;;10126160;28;867;-71
2023/01/23 01:34:18;;;;;;;;;;;16.90;48.30;;;;;;10125423;28;863;-71
2023/01/23 01:39:13;;;;;;;;;;;16.90;48.30;;;;;;10124710;28;1887;-71
2023/01/23 01:44:09;;;;;;;;;;;16.90;48.30;;;;;;10125124;28;839;-71
2023/01/23 01:49:04;;;;;;;;;;;16.90;48.30;;;;;;10125036;28;873;-71
2023/01/23 01:54:00;;;;;;;;;;;16.90;48.30;;;;;;10125008;28;795;-71
2023/01/23 01:58:55;;;;;;;;;;;16.90;48.30;;;;;;10123992;28;1974;-71
2023/01/23 02:03:51;;;;;;;;;;;16.90;48.40;;;;;;10125270;28;837;-71
2023/01/23 02:08:47;;;;;;;;;;;16.90;48.30;;;;;;10124502;28;935;-71
2023/01/23 02:13:42;;;;;;;;;;;16.90;48.30;;;;;;10125291;28;827;-71
2023/01/23 02:18:38;;;;;;;;;;;16.90;48.90;;;;;;10124448;28;1952;-71
2023/01/23 02:23:33;;;;;;;;;;;16.90;48.30;;;;;;10124398;28;1011;-71
2023/01/23 02:28:28;;;;;;;;;;;16.90;48.40;;;;;;10124429;28;775;-71
2023/01/23 02:33:24;;;;;;;;;;;16.90;48.30;;;;;;10124917;28;867;-71
2023/01/23 02:38:19;;;;;;;;;;;16.90;48.30;;;;;;10123872;28;1946;-71
2023/01/23 02:43:14;;;;;;;;;;;16.90;48.40;;;;;;10124014;28;875;-71
2023/01/23 02:48:10;;;;;;;;;;;16.90;48.30;;;;;;10123863;28;925;-71
2023/01/23 02:53:05;;;;;;;;;;;16.90;48.30;;;;;;10123847;28;793;-71
2023/01/23 03:03:14;;;;;;;;;;;16.90;48.40;;;;;;10123871;28;676;-71
2023/01/23 03:08:10;;;;;;;;;;;16.90;48.40;;;;;;10124467;28;953;-71
2023/01/23 03:13:07;;;;;;;;;;;16.80;48.40;;;;;;10130599;28;872;-71
2023/01/23 03:18:02;;;;;;;;;;;16.90;48.40;;;;;;10130384;28;1961;-71
2023/01/23 03:22:58;;;;;;;;;;;16.90;48.30;;;;;;10130321;28;862;-71
2023/01/23 03:27:53;;;;;;;;;;;16.90;49.00;;;;;;10130641;28;853;-71
2023/01/23 03:32:48;;;;;;;;;;;16.90;48.40;;;;;;10130524;28;806;-71
2023/01/23 03:37:45;;;;;;;;;;;16.90;48.30;;;;;;10128995;28;1973;-71
2023/01/23 03:42:40;;;;;;;;;;;16.90;48.30;;;;;;10129596;28;903;-71
2023/01/23 03:47:35;;;;;;;;;;;16.90;48.30;;;;;;10129374;28;1079;-71
2023/01/23 03:52:31;;;;;;;;;;;16.90;48.30;;;;;;10129810;28;792;-71
2023/01/23 03:57:26;;;;;;;;;;;16.90;48.30;;;;;;10128954;28;907;-71
2023/01/23 04:02:22;;;;;;;;;;;16.80;48.40;;;;;;10128803;28;957;-71
2023/01/23 04:07:18;;;;;;;;;;;16.80;48.30;;;;;;10128643;28;958;-71
2023/01/23 04:12:13;;;;;;;;;;;16.80;48.30;;;;;;10128540;28;783;-71
2023/01/23 04:17:08;;;;;;;;;;;16.80;48.30;;;;;;10128385;28;879;-71
2023/01/23 04:22:04;;;;;;;;;;;16.80;48.20;;;;;;10127434;28;1895;-71
2023/01/23 04:26:59;;;;;;;;;;;16.90;48.30;;;;;;10127365;28;1124;-71
2023/01/23 04:31:55;;;;;;;;;;;16.80;48.20;;;;;;10127771;28;863;-71
2023/01/23 04:36:50;;;;;;;;;;;16.80;48.30;;;;;;10127565;28;834;-71
2023/01/23 04:41:45;;;;;;;;;;;16.80;48.20;;;;;;10125118;28;1934;-71
2023/01/23 04:46:41;;;;;;;;;;;16.80;48.30;;;;;;10127168;28;772;-71
2023/01/23 04:51:36;;;;;;;;;;;16.80;48.30;;;;;;10127545;28;968;-71
2023/01/23 04:56:31;;;;;;;;;;;16.80;48.20;;;;;;10126815;28;854;-71
2023/01/23 05:01:27;;;;;;;;;;;16.80;48.20;;;;;;10126591;28;1962;-71
2023/01/23 05:06:22;;;;;;;;;;;16.90;48.30;;;;;;10127031;28;892;-71
2023/01/23 05:11:18;;;;;;;;;;;16.90;48.30;;;;;;10126271;28;892;-70
2023/01/23 05:16:13;;;;;;;;;;;16.90;48.20;;;;;;10125529;28;1004;-71
2023/01/23 05:21:08;;;;;;;;;;;16.90;48.30;;;;;;10125873;28;1967;-71
2023/01/23 05:26:04;;;;;;;;;;;16.90;48.20;;;;;;10125818;28;878;-71
2023/01/23 05:30:59;;;;;;;;;;;16.90;48.20;;;;;;10125170;28;764;-71
2023/01/23 05:35:54;;;;;;;;;;;16.90;48.10;;;;;;10125575;28;869;-71
2023/01/23 05:40:50;;;;;;;;;;;17.00;48.20;;;;;;10125410;28;1907;-73
2023/01/23 05:45:45;;;;;;;;;;;17.00;48.20;;;;;;10125081;28;968;-71
2023/01/23 05:50:40;;;;;;;;;;;17.00;48.20;;;;;;10125000;28;881;-71
2023/01/23 05:55:36;;;;;;;;;;;16.90;48.20;;;;;;10124942;28;774;-69
2023/01/23 06:00:31;;;;;;;;;;;16.90;48.30;;;;;;10124704;28;1970;-70
2023/01/23 06:05:27;;;;;;;;;;;16.90;48.30;;;;;;10125355;28;788;-73
2023/01/23 06:10:22;;;;;;;;;;;16.90;48.30;;;;;;10124900;28;913;-69
2023/01/23 06:15:18;;;;;;;;;;;16.90;48.30;;;;;;10124531;28;849;-70
2023/01/23 06:20:13;;;;;;;;;;;16.90;48.20;;;;;;10124345;28;1898;-70
2023/01/23 06:25:08;;;;;;;;;;;16.90;48.30;;;;;;10125081;28;794;-71
2023/01/23 06:30:04;;;;;;;;;;;16.90;48.30;;;;;;10124218;28;952;-69
2023/01/23 06:35:01;;;;;;;;;;;17.10;48.10;;;;;;10126232;28;1079;-69
2023/01/23 06:39:56;;;;;;;;;;;17.20;47.70;;;;;;10162498;28;1998;-68
2023/01/23 06:44:51;;;;;;;;;;;17.20;47.70;;;;;;10167257;28;924;-68
2023/01/23 06:49:47;;;;;;;;;;;17.30;47.80;;;;;;10171840;28;864;-69
2023/01/23 06:54:42;;;;;;;;;;;17.30;47.80;;;;;;10170414;28;912;-68
2023/01/23 06:59:38;;;;;;;;;;;17.40;47.90;;;;;;10171410;28;1960;-68
2023/01/23 07:04:33;;;;;;;;;;;17.30;47.80;;;;;;10171196;28;888;-69
2023/01/23 07:09:28;;;;;;;;;;;17.40;47.90;;;;;;10170516;28;789;-70
2023/01/23 07:14:25;;;;;;;;;;;17.30;47.90;;;;;;10169627;28;971;-68
2023/01/23 07:19:21;;;;;;;;;;;17.40;48.00;;;;;;10169951;28;1952;-69
2023/01/23 07:24:17;;;;;;;;;;;17.40;48.10;;;;;;10170504;28;805;-69
2023/01/23 07:29:13;;;;;;;;;;;17.40;47.90;;;;;;10169687;28;818;-68
2023/01/23 07:34:08;;;;;;;;;;;17.40;48.00;;;;;;10169570;28;924;-68
2023/01/23 07:39:03;;;;;;;;;;;17.20;48.10;;;;;;10169436;28;1973;-68
2023/01/23 07:43:59;;;;;;;;;;;17.30;48.00;;;;;;10169667;28;880;-69
2023/01/23 07:48:55;;;;;;;;;;;17.30;48.00;;;;;;10170012;28;868;-69
2023/01/23 07:53:50;;;;;;;;;;;17.30;47.90;;;;;;10167937;28;1318;-69
2023/01/23 07:58:45;;;;;;;;;;;17.30;47.90;;;;;;10167645;28;1898;-68
2023/01/23 08:03:41;;;;;;;;;;;17.30;47.90;;;;;;10169050;28;861;-69
2023/01/23 08:08:36;;;;;;;;;;;17.20;48.20;;;;;;10168955;28;808;-68
2023/01/23 08:13:31;;;;;;;;;;;17.30;47.80;;;;;;10168066;28;775;-68
2023/01/23 08:18:27;;;;;;;;;;;17.20;47.80;;;;;;10167822;28;1898;-68
2023/01/23 08:23:22;;;;;;;;;;;17.20;47.80;;;;;;10167711;28;763;-67
2023/01/23 08:28:17;;;;;;;;;;;17.20;47.80;;;;;;10167490;28;834;-68
2023/01/23 08:33:13;;;;;;;;;;;17.20;47.60;;;;;;10167316;28;873;-68
2023/01/23 08:38:09;;;;;;;;;;;17.20;47.50;;;;;;10167691;28;1978;-68
2023/01/23 08:43:05;;;;;;;;;;;17.30;47.30;;;;;;10166957;28;868;-68
2023/01/23 08:48:01;;;;;;;;;;;17.30;47.30;;;;;;10165998;28;1266;-68
2023/01/23 08:52:57;;;;;;;;;;;17.30;47.20;;;;;;10166534;28;845;-69
2023/01/23 08:57:52;;;;;;;;;;;17.30;47.20;;;;;;10166869;28;1902;-69
2023/01/23 09:02:48;;;;;;;;;;;17.30;47.20;;;;;;10166077;28;889;-69
2023/01/23 09:07:43;;;;;;;;;;;17.40;47.10;;;;;;10165623;28;988;-69
2023/01/23 09:12:40;;;;;;;;;;;17.40;47.10;;;;;;10166470;28;846;-69
2023/01/23 09:17:35;;;;;;;;;;;17.40;47.20;;;;;;10165953;28;876;-69
2023/01/23 09:22:31;;;;;;;;;;;17.40;47.20;;;;;;10165324;28;1965;-69
2023/01/23 09:27:26;;;;;;;;;;;17.40;47.10;;;;;;10165265;28;868;-69
2023/01/23 09:32:22;;;;;;;;;;;17.40;47.20;;;;;;10165579;28;842;-69
2023/01/23 09:37:17;;;;;;;;;;;17.40;47.20;;;;;;10166222;28;834;-69
2023/01/23 09:42:12;;;;;;;;;;;17.40;47.30;;;;;;10165030;28;1922;-69
2023/01/23 09:47:08;;;;;;;;;;;17.40;47.30;;;;;;10164691;28;941;-69
2023/01/23 09:52:03;;;;;;;;;;;17.40;47.30;;;;;;10164472;28;833;-69
2023/01/23 09:56:58;;;;;;;;;;;17.50;47.30;;;;;;10163756;28;933;-69
2023/01/23 10:01:54;;;;;;;;;;;17.50;47.20;;;;;;10164220;28;1915;-69
2023/01/23 10:06:49;;;;;;;;;;;17.50;47.20;;;;;;10165576;28;921;-69
2023/01/23 10:11:45;;;;;;;;;;;17.50;47.20;;;;;;10164144;28;775;-69
2023/01/23 10:16:40;;;;;;;;;;;17.50;47.30;;;;;;10163403;28;849;-69
2023/01/23 10:21:35;;;;;;;;;;;17.50;47.30;;;;;;10171399;28;1915;-69
2023/01/23 10:26:31;;;;;;;;;;;17.50;47.30;;;;;;10172846;28;794;-69
2023/01/23 10:31:26;;;;;;;;;;;17.50;47.40;;;;;;10171952;28;794;-69
2023/01/23 10:36:22;;;;;;;;;;;17.40;47.30;;;;;;10172859;28;865;-69
2023/01/23 10:41:18;;;;;;;;;;;17.50;47.30;;;;;;10170635;28;1987;-68
2023/01/23 10:46:14;;;;;;;;;;;17.50;47.20;;;;;;10171788;28;850;-69
2023/01/23 10:51:09;;;;;;;;;;;17.50;47.30;;;;;;10170818;28;803;-69
2023/01/23 10:56:04;;;;;;;;;;;17.50;47.20;;;;;;10170641;28;957;-69
2023/01/23 11:01:00;;;;;;;;;;;17.60;47.30;;;;;;10169766;28;1903;-69
2023/01/23 11:05:55;;;;;;;;;;;17.60;47.90;;;;;;10171069;28;961;-69
2023/01/23 11:10:50;;;;;;;;;;;17.60;47.40;;;;;;10170361;28;959;-69
2023/01/23 11:15:46;;;;;;;;;;;17.60;47.50;;;;;;10169996;28;762;-69
2023/01/23 11:20:41;;;;;;;;;;;17.60;47.50;;;;;;10170199;28;2029;-69
2023/01/23 11:25:37;;;;;;;;;;;17.60;47.40;;;;;;10169434;28;978;-69
2023/01/23 11:30:32;;;;;;;;;;;17.60;47.50;;;;;;10169789;28;970;-69
2023/01/23 11:35:27;;;;;;;;;;;17.60;47.60;;;;;;10168986;28;768;-69
2023/01/23 11:40:23;;;;;;;;;;;17.60;47.40;;;;;;10169135;28;1977;-69
2023/01/23 11:45:18;;;;;;;;;;;17.60;47.50;;;;;;10168820;28;916;-69
2023/01/23 11:50:13;;;;;;;;;;;17.60;47.50;;;;;;10169782;28;943;-69
2023/01/23 11:55:09;;;;;;;;;;;17.60;47.60;;;;;;10168448;28;925;-69
2023/01/23 12:00:07;;;;;;;;;;;17.60;47.60;;;;;;10168083;28;1907;-69
2023/01/23 12:05:04;;;;;;;;;;;17.60;47.50;;;;;;10168142;28;774;-69
2023/01/23 12:09:59;;;;;;;;;;;17.70;47.60;;;;;;10168693;28;936;-70
2023/01/23 12:14:55;;;;;;;;;;;17.70;47.60;;;;;;10167703;28;956;-68
2023/01/23 12:19:50;;;;;;;;;;;17.70;47.60;;;;;;10167550;28;1902;-68
2023/01/23 12:24:46;;;;;;;;;;;17.70;47.60;;;;;;10167287;28;783;-69
2023/01/23 12:29:41;;;;;;;;;;;17.70;47.70;;;;;;10167105;28;893;-69
2023/01/23 12:34:36;;;;;;;;;;;17.70;47.60;;;;;;10166982;28;767;-69
2023/01/23 12:39:32;;;;;;;;;;;17.70;47.80;;;;;;10166478;28;1918;-68
2023/01/23 12:44:27;;;;;;;;;;;17.90;47.80;;;;;;10163786;28;1150;-69
2023/01/23 12:49:23;;;;;;;;;;;17.90;48.00;;;;;;10166310;28;879;-69
2023/01/23 12:54:18;;;;;;;;;;;17.90;48.00;;;;;;10166720;28;771;-68
2023/01/23 12:59:14;;;;;;;;;;;17.80;48.10;;;;;;10165942;28;1973;-69
2023/01/23 13:04:10;;;;;;;;;;;17.80;48.10;;;;;;10159567;28;1819;-68
2023/01/23 13:09:05;;;;;;;;;;;17.80;48.10;;;;;;10148522;28;889;-68
2023/01/23 13:14:00;;;;;;;;;;;17.70;48.10;;;;;;10144225;28;772;-76
2023/01/23 13:25:08;;;;;;;;;;;17.70;48.30;;;;;;10125280;28;609;-68
2023/01/23 13:29:25;;;;;;;;;;;17.60;48.30;;;;;;10125292;28;1580;-70
2023/01/23 13:34:20;;;;;;;;;;;17.70;48.30;;;;;;10124677;28;792;-70
2023/01/23 13:39:16;;;;;;;;;;;17.40;48.40;;;;;;10124607;28;1910;-70
2023/01/23 13:44:11;;;;;;;;;;;17.30;48.60;;;;;;10124956;28;834;-70
2023/01/23 13:59:35;;;;;;;;;;;17.30;48.60;;;;;;10124159;28;1906;-68
2023/01/23 14:10:01;;;;;;;;;;;17.50;48.20;;;;;;10121869;28;1439;-68
2023/01/23 14:20:10;;;;;;;;;;;17.60;48.20;;;;;;10124188;28;1950;-68
2023/01/23 14:25:06;;;;;;;;;;;17.60;48.20;;;;;;10123563;28;826;-68
2023/01/23 14:30:01;;;;;;;;;;;17.60;48.00;;;;;;10123965;28;864;-68
2023/01/23 14:34:56;;;;;;;;;;;17.60;48.00;;;;;;10124403;28;806;-68
2023/01/23 14:39:52;;;;;;;;;;;17.60;48.00;;;;;;10123806;28;1989;-68
2023/01/23 14:44:47;;;;;;;;;;;17.60;48.00;;;;;;10124442;28;836;-68
2023/01/23 14:49:43;;;;;;;;;;;17.60;47.90;;;;;;10123654;28;842;-68
2023/01/23 14:54:38;;;;;;;;;;;17.70;48.00;;;;;;10124115;28;821;-68
2023/01/23 14:59:33;;;;;;;;;;;17.70;48.00;;;;;;10123375;28;1914;-68
2023/01/23 15:04:30;;;;;;;;;;;17.70;48.00;;;;;;10125478;28;885;-68
2023/01/23 15:09:25;;;;;;;;;;;17.70;48.00;;;;;;10130243;28;967;-69
2023/01/23 15:14:20;;;;;;;;;;;17.70;48.00;;;;;;10130457;28;857;-68
2023/01/23 15:19:16;;;;;;;;;;;17.70;48.00;;;;;;10130253;28;1969;-68
2023/01/23 15:24:11;;;;;;;;;;;17.70;48.10;;;;;;10130116;28;874;-68
2023/01/23 15:29:06;;;;;;;;;;;17.70;48.00;;;;;;10129348;28;1240;-69
2023/01/23 15:34:02;;;;;;;;;;;17.70;48.10;;;;;;10129822;28;911;-69
2023/01/23 15:38:58;;;;;;;;;;;17.70;48.20;;;;;;10129282;28;1918;-68
2023/01/23 15:43:53;;;;;;;;;;;17.70;48.40;;;;;;10130284;28;911;-69
2023/01/23 15:48:48;;;;;;;;;;;17.70;48.30;;;;;;10129554;28;792;-68
2023/01/23 15:53:44;;;;;;;;;;;17.70;48.20;;;;;;10129991;28;849;-68
2023/01/23 15:58:39;;;;;;;;;;;17.70;48.20;;;;;;10129177;28;1965;-68
2023/01/23 16:03:35;;;;;;;;;;;17.70;48.20;;;;;;10129769;28;895;-68
2023/01/23 16:08:30;;;;;;;;;;;17.70;48.00;;;;;;10129425;28;932;-68
2023/01/23 16:13:25;;;;;;;;;;;17.70;47.90;;;;;;10129285;28;747;-68
2023/01/23 16:18:22;;;;;;;;;;;17.70;47.90;;;;;;10127497;28;1958;-68
2023/01/23 16:23:18;;;;;;;;;;;17.70;48.00;;;;;;10128825;28;847;-68
2023/01/23 16:28:13;;;;;;;;;;;17.80;47.90;;;;;;10128225;28;978;-69
2023/01/23 16:33:08;;;;;;;;;;;17.80;48.00;;;;;;10127896;28;900;-68
2023/01/23 16:38:04;;;;;;;;;;;17.70;47.90;;;;;;10127983;28;1911;-68
2023/01/23 16:43:01;;;;;;;;;;;17.70;47.90;;;;;;10127471;28;783;-68
2023/01/23 16:47:56;;;;;;;;;;;17.70;47.90;;;;;;10127285;28;867;-68
2023/01/23 16:52:52;;;;;;;;;;;17.70;47.80;;;;;;10127135;28;912;-68
2023/01/23 16:57:47;;;;;;;;;;;17.80;47.90;;;;;;10126981;28;794;-69
2023/01/23 17:02:44;;;;;;;;;;;17.80;47.90;;;;;;10126723;28;1973;-68
2023/01/23 17:07:40;;;;;;;;;;;17.80;47.90;;;;;;10126487;28;1049;-69
2023/01/23 17:12:35;;;;;;;;;;;17.80;47.90;;;;;;10126430;28;798;-68
2023/01/23 17:17:30;;;;;;;;;;;17.80;47.90;;;;;;10126856;28;899;-68
2023/01/23 17:22:26;;;;;;;;;;;17.80;47.90;;;;;;10126640;28;1899;-68
2023/01/23 17:27:21;;;;;;;;;;;17.80;47.90;;;;;;10126416;28;887;-68
2023/01/23 17:32:16;;;;;;;;;;;17.80;47.90;;;;;;10125757;28;791;-68
2023/01/23 17:37:12;;;;;;;;;;;17.80;47.90;;;;;;10126169;28;822;-68
2023/01/23 17:42:07;;;;;;;;;;;17.80;48.00;;;;;;10125809;28;1980;-68
2023/01/23 17:47:03;;;;;;;;;;;17.80;48.10;;;;;;10125286;28;924;-68
2023/01/23 17:51:58;;;;;;;;;;;17.80;48.20;;;;;;10125124;28;811;-68
2023/01/23 17:56:53;;;;;;;;;;;17.80;48.30;;;;;;10126015;28;877;-68
2023/01/23 18:01:49;;;;;;;;;;;17.80;48.40;;;;;;10124729;28;1960;-70
2023/01/23 18:06:44;;;;;;;;;;;17.80;48.50;;;;;;10125352;28;846;-68
2023/01/23 18:11:39;;;;;;;;;;;17.80;48.30;;;;;;10125203;28;1047;-68
2023/01/23 18:16:35;;;;;;;;;;;17.80;48.40;;;;;;10124554;28;830;-68
2023/01/23 18:21:30;;;;;;;;;;;17.80;48.30;;;;;;10124981;28;1962;-68
2023/01/23 18:26:26;;;;;;;;;;;17.80;48.30;;;;;;10123795;28;951;-68
2023/01/23 18:31:21;;;;;;;;;;;17.80;48.10;;;;;;10124279;28;875;-68
2023/01/23 18:36:16;;;;;;;;;;;17.90;48.00;;;;;;10124195;28;921;-65
2023/01/23 18:41:12;;;;;;;;;;;17.80;48.10;;;;;;10128120;28;1907;-66
2023/01/23 18:46:07;;;;;;;;;;;17.70;48.20;;;;;;10131885;28;777;-67
2023/01/23 18:51:02;;;;;;;;;;;17.80;48.00;;;;;;10132394;28;806;-67
2023/01/23 18:55:58;;;;;;;;;;;17.80;47.80;;;;;;10132343;28;937;-67
2023/01/23 19:00:53;;;;;;;;;;;17.80;47.80;;;;;;10130698;28;1906;-67
2023/01/23 19:05:49;;;;;;;;;;;17.80;47.70;;;;;;10132225;28;826;-67
2023/01/23 19:10:44;;;;;;;;;;;17.80;47.70;;;;;;10131171;28;901;-67
2023/01/23 19:15:39;;;;;;;;;;;17.80;47.80;;;;;;10131439;28;913;-67
2023/01/23 19:20:35;;;;;;;;;;;17.80;47.80;;;;;;10130639;28;1969;-68
2023/01/23 19:25:30;;;;;;;;;;;17.80;47.80;;;;;;10130444;28;818;-68
2023/01/23 19:30:25;;;;;;;;;;;17.80;47.80;;;;;;10130898;28;813;-68
2023/01/23 19:35:21;;;;;;;;;;;17.80;47.60;;;;;;10130097;28;885;-68
2023/01/23 19:40:16;;;;;;;;;;;17.80;47.70;;;;;;10129895;28;1910;-79
2023/01/23 19:45:12;;;;;;;;;;;17.70;47.70;;;;;;10129738;28;877;-72
2023/01/23 19:50:07;;;;;;;;;;;17.50;48.00;;;;;;10129304;28;871;-71
2023/01/23 19:55:02;;;;;;;;;;;17.40;48.80;;;;;;10129538;28;925;-72
2023/01/23 19:59:58;;;;;;;;;;;17.40;48.30;;;;;;10129145;28;1907;-72
2023/01/23 20:04:56;;;;;;;;;;;17.40;48.30;;;;;;10129610;28;863;-71
2023/01/23 20:09:51;;;;;;;;;;;17.40;48.30;;;;;;10128766;28;970;-72
2023/01/23 20:14:46;;;;;;;;;;;17.40;48.40;;;;;;10129232;28;901;-72
2023/01/23 20:19:42;;;;;;;;;;;17.40;48.40;;;;;;10128393;28;1902;-72
2023/01/23 20:24:37;;;;;;;;;;;17.40;48.40;;;;;;10128864;28;842;-72
2023/01/23 20:29:32;;;;;;;;;;;17.40;48.40;;;;;;10128681;28;883;-72
2023/01/23 20:34:28;;;;;;;;;;;17.40;48.40;;;;;;10127858;28;868;-72
2023/01/23 20:39:23;;;;;;;;;;;17.40;48.40;;;;;;10127410;28;1978;-72
2023/01/23 20:44:19;;;;;;;;;;;17.40;48.50;;;;;;10128150;28;768;-72
2023/01/23 20:49:14;;;;;;;;;;;17.40;48.50;;;;;;10126748;28;783;-72
2023/01/23 20:54:09;;;;;;;;;;;17.30;48.50;;;;;;10127076;28;951;-72
2023/01/23 20:59:24;;;;;;;;;;;17.30;48.60;;;;;;10126954;28;1968;-72
2023/01/23 21:04:19;;;;;;;;;;;17.30;48.70;;;;;;10126355;28;859;-72
2023/01/23 21:09:14;;;;;;;;;;;17.30;48.70;;;;;;10126747;28;938;-69
2023/01/23 21:14:10;;;;;;;;;;;17.30;48.80;;;;;;10126460;28;811;-68
2023/01/23 21:19:05;;;;;;;;;;;17.50;49.50;;;;;;10126317;28;1894;-68
2023/01/23 21:24:00;;;;;;;;;;;17.60;49.90;;;;;;10125469;28;1191;-69
2023/01/23 21:28:59;;;;;;;;;;;17.60;49.60;;;;;;10125337;28;881;-68
2023/01/23 21:33:54;;;;;;;;;;;17.60;50.20;;;;;;10125759;28;1074;-69
2023/01/23 21:38:50;;;;;;;;;;;17.60;49.70;;;;;;10125526;28;1983;-68
2023/01/23 21:43:45;;;;;;;;;;;17.50;50.10;;;;;;10126147;28;1587;-72
2023/01/23 21:48:40;;;;;;;;;;;17.50;51.30;;;;;;10125836;28;918;-72
2023/01/23 21:53:37;;;;;;;;;;;17.30;50.80;;;;;;10125128;28;1125;-72
2023/01/23 21:58:32;;;;;;;;;;;17.30;50.70;;;;;;10124972;28;1975;-72
2023/01/23 22:03:27;;;;;;;;;;;17.30;50.50;;;;;;10124310;28;846;-73
2023/01/23 22:08:23;;;;;;;;;;;17.20;50.40;;;;;;10124746;28;762;-72
2023/01/23 22:13:18;;;;;;;;;;;17.20;50.20;;;;;;10123390;28;993;-72
2023/01/23 22:18:14;;;;;;;;;;;17.20;50.20;;;;;;10123960;28;1962;-72
2023/01/23 22:23:09;;;;;;;;;;;17.10;50.00;;;;;;10124442;28;776;-72
2023/01/23 22:28:04;;;;;;;;;;;17.10;50.00;;;;;;10124989;28;854;-72
2023/01/23 22:33:00;;;;;;;;;;;17.20;50.00;;;;;;10124255;28;810;-72
2023/01/23 22:37:55;;;;;;;;;;;17.10;49.80;;;;;;10123922;28;1218;-73
2023/01/23 22:42:50;;;;;;;;;;;17.20;49.80;;;;;;10124140;28;1972;-72
2023/01/23 22:47:46;;;;;;;;;;;17.10;49.70;;;;;;10124001;28;925;-72
2023/01/23 22:52:41;;;;;;;;;;;17.10;49.80;;;;;;10123992;28;773;-72
2023/01/23 22:57:36;;;;;;;;;;;17.10;49.80;;;;;;10123893;28;790;-73
2023/01/23 23:02:32;;;;;;;;;;;17.10;49.70;;;;;;10124287;28;1962;-72
2023/01/23 23:07:27;;;;;;;;;;;17.10;49.60;;;;;;10123670;28;801;-73
2023/01/23 23:12:23;;;;;;;;;;;17.10;49.50;;;;;;10123607;28;788;-72
2023/01/23 23:17:18;;;;;;;;;;;17.10;49.50;;;;;;10124231;28;834;-72
2023/01/23 23:22:13;;;;;;;;;;;17.10;49.40;;;;;;10123359;28;1952;-72
2023/01/23 23:27:09;;;;;;;;;;;17.10;49.30;;;;;;10127263;28;913;-72
2023/01/23 23:32:04;;;;;;;;;;;17.20;49.40;;;;;;10130873;28;861;-72
2023/01/23 23:36:59;;;;;;;;;;;17.10;49.30;;;;;;10130269;28;789;-72
2023/01/23 23:41:55;;;;;;;;;;;17.10;49.20;;;;;;10131035;28;1906;-72
2023/01/23 23:46:50;;;;;;;;;;;17.10;49.20;;;;;;10130821;28;961;-72
2023/01/23 23:51:45;;;;;;;;;;;17.10;49.20;;;;;;10130167;28;861;-72
2023/01/23 23:56:41;;;;;;;;;;;17.10;49.20;;;;;;10130000;28;770;-72
